createdAt,value
2022-09-22T00:00:08.424Z,98791.75
2022-09-22T00:02:57.668Z,98783.22
2022-09-22T00:05:46.046Z,98788.72
2022-09-22T00:08:45.260Z,98780.13
2022-09-22T00:11:36.424Z,98785.97
2022-09-22T00:14:28.834Z,98785.50
2022-09-22T00:17:17.304Z,98781.84
2022-09-22T00:20:06.172Z,98784.75
2022-09-22T00:22:55.649Z,98792.66
2022-09-22T00:25:43.944Z,98796.19
2022-09-22T00:28:39.226Z,98790.13
2022-09-22T00:31:29.970Z,98781.56
2022-09-22T00:34:20.712Z,98785.22
2022-09-22T00:37:09.086Z,98787.06
2022-09-22T00:39:57.405Z,98786.75
2022-09-22T00:42:54.837Z,98796.16
2022-09-22T00:45:43.928Z,98801.38
2022-09-22T00:48:49.668Z,98788.09
2022-09-22T00:51:41.451Z,98785.38
2022-09-22T00:54:30.519Z,98795.88
2022-09-22T00:57:32.262Z,98795.81
2022-09-22T01:00:20.977Z,98803.56
2022-09-22T01:03:24.050Z,98793.59
2022-09-22T01:06:20.290Z,98788.38
2022-09-22T01:09:09.857Z,98789.16
2022-09-22T01:12:05.798Z,98800.84
2022-09-22T01:15:06.435Z,98792.88
2022-09-22T01:18:12.860Z,98791.34
2022-09-22T01:21:20.477Z,98791.81
2022-09-22T01:24:47.840Z,98795.69
2022-09-22T01:28:07.193Z,98799.09
2022-09-22T01:31:01.943Z,98805.84
2022-09-22T01:33:54.307Z,98798.44
2022-09-22T01:36:50.829Z,98799.78
2022-09-22T01:39:43.645Z,98803.81
2022-09-22T01:42:38.449Z,98793.66
2022-09-22T01:45:31.870Z,98787.75
2022-09-22T01:48:26.513Z,98785.41
2022-09-22T01:51:19.770Z,98789.28
2022-09-22T01:54:15.340Z,98776.72
2022-09-22T01:57:12.347Z,98773.63
2022-09-22T02:00:08.639Z,98784.88
2022-09-22T02:03:08.590Z,98773.00
2022-09-22T02:06:02.796Z,98781.19
2022-09-22T02:08:56.791Z,98771.25
2022-09-22T02:11:45.590Z,98771.69
2022-09-22T02:14:34.160Z,98779.88
2022-09-22T02:17:32.975Z,98775.00
2022-09-22T02:20:25.833Z,98778.09
2022-09-22T02:23:15.767Z,98780.78
2022-09-22T02:26:05.586Z,98778.38
2022-09-22T02:28:56.739Z,98780.94
2022-09-22T02:31:46.310Z,98779.13
2022-09-22T02:34:41.226Z,98775.81
2022-09-22T02:37:38.296Z,98770.13
2022-09-22T02:40:31.905Z,98776.06
2022-09-22T02:43:25.524Z,98778.13
2022-09-22T02:46:21.344Z,98771.31
2022-09-22T02:49:14.980Z,98771.09
2022-09-22T02:52:03.628Z,98774.53
2022-09-22T02:54:53.095Z,98774.53
2022-09-22T02:57:52.252Z,98782.41
2022-09-22T03:00:40.724Z,98779.75
2022-09-22T03:03:38.126Z,98780.06
2022-09-22T03:06:26.444Z,98785.34
2022-09-22T03:09:23.757Z,98777.66
2022-09-22T03:12:12.440Z,98779.00
2022-09-22T03:15:12.558Z,98785.50
2022-09-22T03:18:01.089Z,98786.91
2022-09-22T03:20:52.479Z,98780.44
2022-09-22T03:23:40.877Z,98783.31
2022-09-22T03:26:38.364Z,98779.13
2022-09-22T03:29:26.804Z,98784.38
2022-09-22T03:32:26.012Z,98789.16
2022-09-22T03:35:14.314Z,98774.72
2022-09-22T03:38:12.030Z,98790.03
2022-09-22T03:41:01.468Z,98787.81
2022-09-22T03:43:58.752Z,98783.84
2022-09-22T03:46:47.106Z,98790.19
2022-09-22T03:49:45.894Z,98796.44
2022-09-22T03:52:34.904Z,98791.47
2022-09-22T03:55:23.221Z,98790.28
2022-09-22T03:58:20.006Z,98795.56
2022-09-22T04:01:10.334Z,98797.84
2022-09-22T04:04:04.764Z,98788.09
2022-09-22T04:06:54.577Z,98799.41
2022-09-22T04:09:49.041Z,98796.44
2022-09-22T04:12:37.890Z,98797.66
2022-09-22T04:15:26.396Z,98800.41
2022-09-22T04:18:16.123Z,98793.75
2022-09-22T04:21:05.633Z,98799.03
2022-09-22T04:23:55.365Z,98809.34
2022-09-22T04:27:15.252Z,98801.94
2022-09-22T04:29:58.049Z,98800.06
2022-09-22T04:32:46.537Z,98804.22
2022-09-22T04:35:44.059Z,98803.28
2022-09-22T04:38:32.607Z,98800.41
2022-09-22T04:41:31.865Z,98801.66
2022-09-22T04:44:20.330Z,98797.94
2022-09-22T04:47:17.767Z,98807.56
2022-09-22T04:50:06.684Z,98804.91
2022-09-22T04:52:56.813Z,98802.63
2022-09-22T04:55:51.893Z,98801.34
2022-09-22T04:58:41.833Z,98796.41
2022-09-22T05:01:30.431Z,98803.97
2022-09-22T05:04:18.961Z,98802.34
2022-09-22T05:07:07.325Z,98795.38
2022-09-22T05:09:55.681Z,98800.75
2022-09-22T05:12:45.305Z,98812.78
2022-09-22T05:15:35.218Z,98806.66
2022-09-22T05:18:23.733Z,98801.09
2022-09-22T05:21:21.403Z,98809.63
2022-09-22T05:24:09.948Z,98808.00
2022-09-22T05:26:58.337Z,98815.22
2022-09-22T05:29:47.265Z,98821.53
2022-09-22T05:32:37.054Z,98823.47
2022-09-22T05:35:26.310Z,98816.09
2022-09-22T05:38:14.699Z,98819.25
2022-09-22T05:41:03.806Z,98823.66
2022-09-22T05:43:52.235Z,98810.38
2022-09-22T05:46:40.647Z,98814.09
2022-09-22T05:49:33.094Z,98821.19
2022-09-22T05:52:21.543Z,98817.03
2022-09-22T05:55:10.950Z,98812.47
2022-09-22T05:58:11.834Z,98821.19
2022-09-22T06:01:00.400Z,98821.78
2022-09-22T06:03:57.976Z,98835.22
2022-09-22T06:06:47.918Z,98827.63
2022-09-22T06:09:45.254Z,98839.91
2022-09-22T06:12:33.655Z,98837.06
2022-09-22T06:15:33.974Z,98838.84
2022-09-22T06:18:24.950Z,98830.63
2022-09-22T06:21:13.460Z,98833.38
2022-09-22T06:24:09.168Z,98841.75
2022-09-22T06:26:57.553Z,98843.91
2022-09-22T06:29:45.972Z,98842.16
2022-09-22T06:32:34.399Z,98835.97
2022-09-22T06:35:22.918Z,98833.66
2022-09-22T06:38:15.015Z,98837.84
2022-09-22T06:41:07.430Z,98839.41
2022-09-22T06:43:56.288Z,98839.53
2022-09-22T06:46:45.827Z,98850.16
2022-09-22T06:49:43.266Z,98847.97
2022-09-22T06:52:31.892Z,98858.03
2022-09-22T06:55:20.947Z,98852.84
2022-09-22T06:58:21.999Z,98854.06
2022-09-22T07:01:10.875Z,98854.22
2022-09-22T07:04:02.730Z,98858.06
2022-09-22T07:06:51.514Z,98857.88
2022-09-22T07:09:48.886Z,98859.69
2022-09-22T07:12:37.224Z,98853.03
2022-09-22T07:15:27.983Z,98860.03
2022-09-22T07:18:16.579Z,98850.47
2022-09-22T07:21:15.776Z,98852.97
2022-09-22T07:24:08.365Z,98854.72
2022-09-22T07:26:56.873Z,98855.13
2022-09-22T07:29:49.472Z,98853.81
2022-09-22T07:32:39.056Z,98862.53
2022-09-22T07:35:35.332Z,98864.22
2022-09-22T07:38:24.387Z,98858.81
2022-09-22T07:41:14.821Z,98849.75
2022-09-22T07:44:23.832Z,98844.03
2022-09-22T07:47:12.258Z,98850.53
2022-09-22T07:50:04.928Z,98845.47
2022-09-22T07:52:53.423Z,98840.63
2022-09-22T07:55:41.799Z,98858.75
2022-09-22T07:58:30.951Z,98856.50
2022-09-22T08:01:29.137Z,98859.94
2022-09-22T08:04:22.886Z,98860.47
2022-09-22T08:07:15.212Z,98872.28
2022-09-22T08:10:03.789Z,98874.44
2022-09-22T08:12:53.071Z,98876.38
2022-09-22T08:15:42.287Z,98872.63
2022-09-22T08:18:40.924Z,98875.16
2022-09-22T08:21:33.000Z,98869.31
2022-09-22T08:24:23.847Z,98882.72
2022-09-22T08:27:12.521Z,98881.22
2022-09-22T08:30:04.205Z,98877.91
2022-09-22T08:32:53.612Z,98874.59
2022-09-22T08:35:53.503Z,98872.88
2022-09-22T08:38:43.021Z,98860.56
2022-09-22T08:41:41.591Z,98864.94
2022-09-22T08:44:37.481Z,98863.31
2022-09-22T08:47:50.580Z,98865.63
2022-09-22T08:51:06.953Z,98871.28
2022-09-22T08:54:00.920Z,98858.69
2022-09-22T08:57:03.233Z,98856.72
2022-09-22T08:59:57.163Z,98857.13
2022-09-22T09:02:50.786Z,98843.66
2022-09-22T09:06:04.484Z,98842.88
2022-09-22T09:09:28.163Z,98847.22
2022-09-22T09:12:29.648Z,98833.06
2022-09-22T09:15:41.764Z,98840.09
2022-09-22T09:18:34.358Z,98838.09
2022-09-22T13:14:45.308Z,98752.97
2022-09-22T13:17:34.532Z,98753.88
2022-09-22T13:20:25.630Z,98765.13
2022-09-22T13:23:20.196Z,98753.66
2022-09-22T13:26:09.388Z,98756.88
2022-09-22T13:29:03.358Z,98752.31
2022-09-22T13:31:55.500Z,98765.53
2022-09-22T13:34:43.854Z,98749.44
2022-09-22T13:37:41.026Z,98755.13
2022-09-22T13:40:34.933Z,98764.75
2022-09-22T13:43:29.591Z,98765.03
2022-09-22T13:46:24.178Z,98760.94
2022-09-22T13:49:19.250Z,98775.88
2022-09-22T13:52:10.591Z,98751.63
2022-09-22T13:55:01.668Z,98747.56
2022-09-22T13:57:50.228Z,98743.00
2022-09-22T14:01:08.634Z,98738.56
2022-09-22T14:03:52.675Z,98739.94
2022-09-22T14:06:42.505Z,98733.38
2022-09-22T14:09:39.899Z,98735.66
2022-09-22T14:12:29.639Z,98745.34
2022-09-22T14:15:43.495Z,98741.25
2022-09-22T14:18:32.502Z,98729.41
2022-09-22T14:21:27.159Z,98751.03
2022-09-22T14:24:17.504Z,98746.28
2022-09-22T14:27:20.775Z,98768.81
2022-09-22T14:30:17.755Z,98753.69
2022-09-22T14:33:06.379Z,98746.34
2022-09-22T14:36:08.205Z,98741.16
2022-09-22T14:39:10.185Z,98753.72
2022-09-22T14:42:09.051Z,98742.03
2022-09-22T14:45:17.886Z,98747.50
2022-09-22T14:48:18.505Z,98742.63
2022-09-22T14:51:10.466Z,98750.13
2022-09-22T14:54:03.900Z,98742.75
2022-09-22T14:56:52.364Z,98749.69
2022-09-22T15:00:15.320Z,98748.41
2022-09-22T15:03:07.599Z,98756.25
2022-09-22T15:06:07.428Z,98755.44
2022-09-22T15:08:55.708Z,98753.63
2022-09-22T15:11:48.997Z,98763.91
2022-09-22T15:14:43.978Z,98752.69
2022-09-22T15:18:04.576Z,98760.22
2022-09-22T15:20:57.427Z,98748.31
2022-09-22T15:23:49.418Z,98746.69
2022-09-22T15:26:38.668Z,98751.38
2022-09-22T15:29:36.357Z,98763.56
2022-09-22T15:32:24.855Z,98762.34
2022-09-22T15:35:15.683Z,98758.03
2022-09-22T15:38:04.766Z,98752.41
2022-09-22T15:41:02.053Z,98770.41
2022-09-22T15:43:50.607Z,98769.47
2022-09-22T15:46:51.549Z,98755.06
2022-09-22T15:49:40.265Z,98758.78
2022-09-22T15:52:36.015Z,98763.16
2022-09-22T15:55:25.520Z,98761.94
2022-09-22T15:58:22.936Z,98756.69
2022-09-22T16:01:11.557Z,98766.75
2022-09-22T16:04:07.089Z,98754.31
2022-09-22T16:07:01.317Z,98757.66
2022-09-22T16:09:51.053Z,98755.94
2022-09-22T16:12:41.680Z,98759.09
2022-09-22T16:15:32.287Z,98751.13
2022-09-22T16:18:20.612Z,98760.41
2022-09-22T16:21:22.305Z,98756.97
2022-09-22T16:24:12.057Z,98769.06
2022-09-22T16:27:07.577Z,98761.38
2022-09-22T16:29:56.001Z,98756.16
2022-09-22T16:32:44.406Z,98758.28
2022-09-22T16:35:32.651Z,98762.44
2022-09-22T16:38:20.934Z,98755.72
2022-09-22T16:41:20.834Z,98742.09
2022-09-22T16:44:10.530Z,98746.19
2022-09-22T16:46:59.216Z,98752.66
2022-09-22T16:49:51.485Z,98758.59
2022-09-22T16:52:40.005Z,98751.44
2022-09-22T16:55:37.751Z,98766.44
2022-09-22T16:58:26.141Z,98760.69
2022-09-22T17:01:19.631Z,98759.25
2022-09-22T17:04:09.668Z,98754.81
2022-09-22T17:06:58.371Z,98761.66
2022-09-22T17:09:47.389Z,98768.81
2022-09-22T17:12:36.589Z,98770.50
2022-09-22T17:15:24.958Z,98778.28
2022-09-22T17:18:14.581Z,98778.22
2022-09-22T17:21:09.309Z,98777.28
2022-09-22T17:24:00.632Z,98775.16
2022-09-22T17:26:52.209Z,98774.56
2022-09-22T17:29:40.506Z,98767.09
2022-09-22T17:32:29.480Z,98767.66
2022-09-22T17:35:19.267Z,98762.78
2022-09-22T17:38:07.495Z,98775.94
2022-09-22T17:41:07.291Z,98781.09
2022-09-22T17:43:57.588Z,98789.53
2022-09-22T17:47:11.428Z,98788.22
2022-09-22T17:50:17.188Z,98791.22
2022-09-22T17:53:24.568Z,98785.50
2022-09-22T17:56:13.414Z,98789.38
2022-09-22T17:59:01.774Z,98787.53
2022-09-22T18:01:53.525Z,98800.09
2022-09-22T18:04:42.809Z,98808.91
2022-09-22T18:07:35.172Z,98805.06
2022-09-22T18:10:32.505Z,98806.25
2022-09-22T18:13:21.024Z,98802.72
2022-09-22T18:16:21.226Z,98803.34
2022-09-22T18:19:10.098Z,98808.00
2022-09-22T18:21:58.762Z,98802.69
2022-09-22T18:24:48.442Z,98795.00
2022-09-22T18:27:39.132Z,98803.97
2022-09-22T18:30:28.424Z,98807.63
2022-09-22T18:33:18.633Z,98811.06
2022-09-22T18:36:07.594Z,98820.34
2022-09-22T18:38:56.442Z,98823.59
2022-09-22T18:41:45.058Z,98817.41
2022-09-22T18:44:35.261Z,98823.75
2022-09-22T18:47:25.155Z,98821.59
2022-09-22T18:50:13.861Z,98826.47
2022-09-22T18:53:02.290Z,98825.53
2022-09-22T18:55:52.856Z,98812.81
2022-09-22T18:58:41.238Z,98817.53
2022-09-22T19:01:34.539Z,98818.81
2022-09-22T19:04:24.467Z,98814.25
2022-09-22T19:07:30.230Z,98810.66
2022-09-22T19:10:21.966Z,98810.75
2022-09-22T19:13:11.230Z,98816.91
2022-09-22T19:15:59.672Z,98819.69
2022-09-22T19:18:49.957Z,98818.09
2022-09-22T19:21:38.914Z,98814.63
2022-09-22T19:24:27.204Z,98816.09
2022-09-22T19:27:18.594Z,98816.50
2022-09-22T19:30:08.320Z,98820.44
2022-09-22T19:32:57.041Z,98815.06
2022-09-22T19:35:46.758Z,98821.47
2022-09-22T19:38:35.161Z,98808.84
2022-09-22T19:41:26.962Z,98822.03
2022-09-22T19:44:16.590Z,98824.56
2022-09-22T19:47:04.992Z,98816.09
2022-09-22T19:49:53.369Z,98820.78
2022-09-22T19:52:43.084Z,98814.94
2022-09-22T19:55:31.547Z,98819.19
2022-09-22T19:58:19.896Z,98819.91
2022-09-22T20:01:08.963Z,98808.34
2022-09-22T20:03:57.456Z,98817.13
2022-09-22T20:06:45.998Z,98811.06
2022-09-22T20:09:35.958Z,98811.22
2022-09-22T20:12:24.337Z,98816.78
2022-09-22T20:15:15.653Z,98802.78
2022-09-22T20:18:05.436Z,98807.25
2022-09-22T20:20:55.572Z,98809.16
2022-09-22T20:23:43.953Z,98809.28
2022-09-22T20:26:33.885Z,98810.41
2022-09-22T20:29:22.215Z,98810.34
2022-09-22T20:32:10.572Z,98802.16
2022-09-22T20:34:59.039Z,98805.75
2022-09-22T20:37:47.488Z,98802.97
2022-09-22T20:40:36.134Z,98804.28
2022-09-22T20:43:27.619Z,98803.22
2022-09-22T20:46:16.874Z,98804.06
2022-09-22T20:49:06.312Z,98802.31
2022-09-22T20:51:56.525Z,98797.72
2022-09-22T20:54:46.577Z,98802.47
2022-09-22T20:57:34.836Z,98796.22
2022-09-22T21:00:25.060Z,98802.78
2022-09-22T21:03:13.399Z,98796.56
2022-09-22T21:06:02.691Z,98791.09
2022-09-22T21:09:09.518Z,98802.81
2022-09-22T21:11:58.207Z,98798.13
2022-09-22T21:14:46.519Z,98802.22
2022-09-22T21:17:36.231Z,98794.75
2022-09-22T21:20:24.526Z,98797.22
2022-09-22T21:23:13.894Z,98803.25
2022-09-22T21:26:05.769Z,98797.72
2022-09-22T21:28:54.337Z,98790.94
2022-09-22T21:31:42.760Z,98795.00
2022-09-22T21:34:32.549Z,98797.75
2022-09-22T21:37:23.551Z,98798.53
2022-09-22T21:40:11.931Z,98792.56
2022-09-22T21:43:00.328Z,98797.44
2022-09-22T21:45:48.949Z,98794.09
2022-09-22T21:48:37.699Z,98791.47
2022-09-22T21:51:27.755Z,98792.72
2022-09-22T21:54:18.209Z,98798.34
2022-09-22T21:57:06.579Z,98794.09
2022-09-22T21:59:56.750Z,98791.16
2022-09-22T22:03:02.707Z,98791.94
2022-09-22T22:05:51.033Z,98784.59
2022-09-22T22:08:42.954Z,98782.63
2022-09-22T22:11:33.725Z,98784.44
2022-09-22T22:14:23.353Z,98784.72
2022-09-22T22:17:11.670Z,98771.69
2022-09-22T22:19:59.954Z,98778.16
2022-09-22T22:22:48.240Z,98776.50
2022-09-22T22:25:38.994Z,98780.63
2022-09-22T22:28:27.260Z,98779.84
2022-09-22T22:31:17.715Z,98777.34
2022-09-22T22:34:07.143Z,98772.88
2022-09-22T22:36:56.451Z,98775.78
2022-09-22T22:39:44.793Z,98775.56
2022-09-22T22:42:34.471Z,98771.75
2022-09-22T22:45:22.742Z,98768.22
2022-09-22T22:48:11.760Z,98767.09
2022-09-22T22:51:02.531Z,98766.50
2022-09-22T22:53:55.771Z,98764.50
2022-09-22T22:56:46.821Z,98759.47
2022-09-22T22:59:38.604Z,98760.88
2022-09-22T23:02:26.922Z,98761.66
2022-09-22T23:05:15.219Z,98753.38
2022-09-22T23:08:03.552Z,98753.38
2022-09-22T23:10:51.966Z,98759.03
2022-09-22T23:13:41.268Z,98749.84
2022-09-22T23:16:33.294Z,98751.06
2022-09-22T23:19:21.688Z,98746.34
2022-09-22T23:22:10.344Z,98755.06
2022-09-22T23:24:58.840Z,98757.22
2022-09-22T23:27:48.838Z,98755.69
2022-09-22T23:30:37.215Z,98752.31
2022-09-22T23:33:28.908Z,98747.28
2022-09-22T23:36:18.774Z,98750.78
2022-09-22T23:39:07.267Z,98749.22
2022-09-22T23:41:55.754Z,98741.75
2022-09-22T23:44:44.196Z,98737.78
2022-09-22T23:47:33.010Z,98746.31
2022-09-22T23:50:23.466Z,98749.56
2022-09-22T23:53:11.997Z,98737.78
2022-09-22T23:56:00.556Z,98736.84
2022-09-22T23:58:49.108Z,98739.59
